Airport Name : Lengpui

Other Name : Lengpui

ICAO : VELP

IATA : AJL

FAA :

Latitude : 23.840592

Longitude : 92.619747

Country : India

Local Date and Time : 20 May 2024 11:20

 

TAF (Terminal Aerodrome Forecast)

TAF VELP 200500Z 2006/2015 35003KT 3000 BR FEW016 SCT100 TEMPO 2009/2012 28010G25KT 1800 -TSRA SCT016 FEW030CB BKN100

 

METAR (METeorological Aerodrome Report)

VELP 200530Z 06004KT 3000 HZ SCT015 SCT100 31/22 Q1009 NOSIG

VELP 200500Z 34004KT 3000 HZ SCT015 30/23 Q1010 NOSIG

VELP 200430Z 35003KT 3000 HZ FEW015 30/23 Q1010 NOSIG

VELP 200400Z 05004KT 3000 BR FEW015 SCT100 29/24 Q1010 NOSIG

VELP 200330Z 00000KT 1700 BR SCT015 BKN100 28/24 Q1010 BECMG 3000 BR

VELP 200300Z 00000KT 1700 BR FEW004 SCT015 BKN100 26/24 Q1010 NOSIG

VELP 200230Z 00000KT 1700 BR FEW004 SCT015 BKN100 26/22 Q1011 NOSIG

VELP 200200Z 00000KT 1700 BR FEW004 SCT015 BKN100 26/22 Q1010 NOSIG